createdAt,value
2023-01-09T00:01:25.105Z,8.52
2023-01-09T00:03:54.484Z,8.52
2023-01-09T00:06:22.423Z,8.51
2023-01-09T00:08:50.565Z,8.48
2023-01-09T00:11:19.976Z,8.48
2023-01-09T00:13:48.075Z,8.49
2023-01-09T00:16:16.491Z,8.52
2023-01-09T00:18:44.528Z,8.51
2023-01-09T00:21:14.396Z,8.49
2023-01-09T00:23:42.462Z,8.44
2023-01-09T00:26:14.867Z,8.41
2023-01-09T00:28:44.303Z,8.33
2023-01-09T00:31:13.008Z,8.35
2023-01-09T00:33:43.781Z,8.39
2023-01-09T00:36:12.383Z,8.39
2023-01-09T00:38:41.321Z,8.40
2023-01-09T00:41:13.092Z,8.34
2023-01-09T00:43:47.622Z,8.43
2023-01-09T00:46:16.623Z,8.49
2023-01-09T00:48:48.879Z,8.51
2023-01-09T00:51:18.392Z,8.54
2023-01-09T00:53:46.890Z,8.57
2023-01-09T00:56:17.841Z,8.55
2023-01-09T00:58:47.933Z,8.52
2023-01-09T01:01:15.954Z,8.52
2023-01-09T01:03:44.272Z,8.46
2023-01-09T01:06:29.439Z,8.47
2023-01-09T01:08:57.507Z,8.42
2023-01-09T01:11:25.600Z,8.36
2023-01-09T01:13:54.926Z,8.38
2023-01-09T01:16:22.974Z,8.39
2023-01-09T01:18:50.838Z,8.33
2023-01-09T01:21:19.809Z,8.27
2023-01-09T01:23:47.722Z,8.31
2023-01-09T01:26:17.476Z,8.33
2023-01-09T01:28:45.619Z,8.32
2023-01-09T01:31:19.326Z,8.36
2023-01-09T01:33:47.574Z,8.42
2023-01-09T01:36:17.551Z,8.43
2023-01-09T01:38:46.921Z,8.42
2023-01-09T01:41:29.259Z,8.40
2023-01-09T01:43:59.197Z,8.41
2023-01-09T01:46:29.016Z,8.38
2023-01-09T01:49:01.268Z,8.37
2023-01-09T01:51:32.014Z,8.40
2023-01-09T01:54:04.422Z,8.43
2023-01-09T01:56:37.739Z,8.51
2023-01-09T01:59:09.845Z,8.58
2023-01-09T02:01:42.059Z,8.61
2023-01-09T02:04:11.011Z,8.68
2023-01-09T02:06:39.715Z,8.68
2023-01-09T02:09:08.441Z,8.65
2023-01-09T02:11:36.380Z,8.61
2023-01-09T02:14:04.460Z,8.64
2023-01-09T02:16:48.068Z,8.67
2023-01-09T02:19:34.103Z,8.71
2023-01-09T02:22:12.800Z,8.76
2023-01-09T02:25:03.324Z,8.84
2023-01-09T02:28:11.028Z,8.88
2023-01-09T02:30:47.752Z,8.86
2023-01-09T02:33:40.635Z,8.92
2023-01-09T02:36:23.739Z,8.95
2023-01-09T02:39:09.151Z,8.93
2023-01-09T02:41:43.715Z,8.95
2023-01-09T02:44:22.568Z,8.92
2023-01-09T02:47:03.494Z,8.97
2023-01-09T02:49:32.604Z,8.95
2023-01-09T02:52:14.787Z,8.99
2023-01-09T02:54:54.861Z,9.00
2023-01-09T02:57:31.974Z,9.04
2023-01-09T03:00:10.813Z,9.02
2023-01-09T03:02:50.768Z,9.04
2023-01-09T03:05:27.176Z,9.04
2023-01-09T03:08:02.185Z,8.96
2023-01-09T03:10:36.924Z,8.97
2023-01-09T03:13:06.543Z,9.05
2023-01-09T03:15:38.208Z,9.02
2023-01-09T03:18:09.988Z,9.06
2023-01-09T03:20:39.759Z,9.15
2023-01-09T03:23:08.866Z,9.11
2023-01-09T03:25:36.765Z,9.13
2023-01-09T03:28:07.240Z,9.21
2023-01-09T03:30:37.730Z,9.27
2023-01-09T03:33:06.903Z,9.36
2023-01-09T03:35:34.712Z,9.40
2023-01-09T03:38:02.500Z,9.40
2023-01-09T03:40:30.379Z,9.43
2023-01-09T03:42:58.212Z,9.42
2023-01-09T03:45:26.058Z,9.34
2023-01-09T03:47:54.085Z,9.42
2023-01-09T03:50:23.292Z,9.48
2023-01-09T03:52:51.110Z,9.45
2023-01-09T03:55:19.096Z,9.46
2023-01-09T03:57:46.967Z,9.40
2023-01-09T04:00:15.558Z,9.42
2023-01-09T04:02:43.771Z,9.48
2023-01-09T04:05:12.036Z,9.53
2023-01-09T04:07:41.289Z,9.58
2023-01-09T04:10:10.623Z,9.57
2023-01-09T04:12:38.473Z,9.57
2023-01-09T04:15:07.470Z,9.53
2023-01-09T04:17:35.429Z,9.60
2023-01-09T04:20:03.320Z,9.59
2023-01-09T04:22:32.037Z,9.60
2023-01-09T04:25:01.415Z,9.63
2023-01-09T04:27:29.321Z,9.60
2023-01-09T04:29:57.272Z,9.62
2023-01-09T04:32:27.591Z,9.58
2023-01-09T04:34:55.442Z,9.61
2023-01-09T04:37:24.464Z,9.64
2023-01-09T04:39:56.077Z,9.61
2023-01-09T04:42:25.635Z,9.58
2023-01-09T04:44:54.189Z,9.52
2023-01-09T04:47:23.861Z,9.53
2023-01-09T04:49:52.072Z,9.59
2023-01-09T04:52:19.953Z,9.59
2023-01-09T04:54:47.885Z,9.62
2023-01-09T04:57:15.681Z,9.60
2023-01-09T04:59:44.929Z,9.61
2023-01-09T05:02:13.055Z,9.63
2023-01-09T05:04:41.006Z,9.61
2023-01-09T05:07:09.001Z,9.62
2023-01-09T05:09:36.958Z,9.65
2023-01-09T05:12:05.164Z,9.65
2023-01-09T05:14:33.171Z,9.66
2023-01-09T05:17:02.463Z,9.64
2023-01-09T05:19:30.303Z,9.58
2023-01-09T05:21:58.151Z,9.60
2023-01-09T05:24:26.142Z,9.61
2023-01-09T05:26:53.978Z,9.62
2023-01-09T05:29:21.857Z,9.57
2023-01-09T05:31:49.800Z,9.60
2023-01-09T05:34:19.140Z,9.60
2023-01-09T05:36:47.032Z,9.61
2023-01-09T05:39:15.005Z,9.63
2023-01-09T05:41:42.874Z,9.67
2023-01-09T05:44:10.719Z,9.66
2023-01-09T05:46:38.699Z,9.66
2023-01-09T05:49:06.523Z,9.63
2023-01-09T05:51:35.795Z,9.65
2023-01-09T05:54:04.907Z,9.73
2023-01-09T05:56:32.743Z,9.75
2023-01-09T05:59:00.563Z,9.72
2023-01-09T06:01:28.517Z,9.79
2023-01-09T06:03:56.344Z,9.80
2023-01-09T06:06:24.753Z,9.80
2023-01-09T06:08:54.468Z,9.84
2023-01-09T06:11:22.265Z,9.81
2023-01-09T06:13:50.238Z,9.82
2023-01-09T06:16:18.508Z,9.75
2023-01-09T06:18:46.376Z,9.79
2023-01-09T06:21:14.259Z,9.87
2023-01-09T06:23:42.251Z,9.94
2023-01-09T06:26:11.538Z,10.05
2023-01-09T06:28:39.351Z,10.07
2023-01-09T06:31:07.337Z,10.12
2023-01-09T06:33:35.311Z,10.12
2023-01-09T06:36:03.191Z,10.16
2023-01-09T06:38:31.184Z,10.16
2023-01-09T06:40:59.078Z,10.23
2023-01-09T06:43:28.309Z,10.27
2023-01-09T06:45:57.253Z,10.30
2023-01-09T06:48:25.922Z,10.30
2023-01-09T06:50:54.044Z,10.31
2023-01-09T06:53:22.161Z,10.23
2023-01-09T06:55:50.676Z,10.13
2023-01-09T06:58:18.923Z,10.13
2023-01-09T07:00:49.395Z,10.15
2023-01-09T07:03:19.862Z,10.15
2023-01-09T07:05:48.153Z,10.22
2023-01-09T07:08:19.087Z,10.22
2023-01-09T07:10:46.922Z,10.17
2023-01-09T07:13:14.780Z,10.16
2023-01-09T07:15:43.091Z,10.13
2023-01-09T07:18:12.377Z,10.08
2023-01-09T07:20:41.294Z,9.90
2023-01-09T07:23:09.908Z,9.97
2023-01-09T07:25:37.880Z,9.93
2023-01-09T07:28:06.640Z,9.92
2023-01-09T07:30:34.574Z,9.87
2023-01-09T07:33:04.016Z,9.75
2023-01-09T07:35:33.741Z,9.73
2023-01-09T07:38:01.914Z,9.68
2023-01-09T07:40:29.864Z,9.63
2023-01-09T07:42:57.759Z,9.59
2023-01-09T07:45:25.653Z,9.51
2023-01-09T07:47:53.684Z,9.50
2023-01-09T07:50:21.485Z,9.60
2023-01-09T07:52:50.808Z,9.55
2023-01-09T07:55:18.757Z,9.56
2023-01-09T07:57:49.863Z,9.59
2023-01-09T08:00:18.550Z,9.50
2023-01-09T08:02:46.442Z,9.46
2023-01-09T08:05:15.927Z,9.63
2023-01-09T08:07:44.120Z,9.53
2023-01-09T08:10:13.990Z,9.62
2023-01-09T08:12:44.209Z,9.66
2023-01-09T08:15:12.866Z,9.53
2023-01-09T08:17:42.365Z,9.56
2023-01-09T08:20:12.176Z,9.63
2023-01-09T08:22:40.690Z,9.47
2023-01-09T08:25:11.968Z,9.48
2023-01-09T08:27:41.619Z,9.54
2023-01-09T08:30:11.091Z,9.36
2023-01-09T08:32:41.310Z,9.31
2023-01-09T08:35:09.823Z,9.35
2023-01-09T08:37:37.661Z,9.37
2023-01-09T08:40:06.325Z,9.46
2023-01-09T08:42:51.493Z,9.50
2023-01-09T08:45:38.024Z,9.49
2023-01-09T08:48:06.305Z,9.44
2023-01-09T08:50:34.210Z,9.36
2023-01-09T08:53:02.217Z,9.42
2023-01-09T08:55:31.334Z,9.38
2023-01-09T08:57:59.142Z,9.37
2023-01-09T09:00:28.611Z,9.37
2023-01-09T09:02:58.063Z,9.24
2023-01-09T09:05:27.387Z,9.21
2023-01-09T09:07:56.674Z,9.20
2023-01-09T09:10:28.620Z,9.26
2023-01-09T09:12:58.214Z,9.19
2023-01-09T09:15:28.495Z,9.06
2023-01-09T09:17:57.821Z,9.09
2023-01-09T09:20:29.122Z,9.11
2023-01-09T09:22:56.999Z,9.20
2023-01-09T09:25:25.010Z,9.24
2023-01-09T09:27:53.154Z,9.18
2023-01-09T09:30:21.366Z,9.23
2023-01-09T09:32:50.794Z,9.04
2023-01-09T09:35:20.999Z,9.08
2023-01-09T09:37:55.422Z,9.16
2023-01-09T09:40:36.475Z,9.33
2023-01-09T09:43:53.580Z,9.33
2023-01-09T09:46:34.095Z,9.51
2023-01-09T09:49:11.300Z,9.47
2023-01-09T09:51:53.834Z,9.45
2023-01-09T09:54:28.459Z,9.37
2023-01-09T09:56:59.329Z,9.17
2023-01-09T09:59:30.766Z,9.36
2023-01-09T10:02:01.995Z,9.50
2023-01-09T10:04:35.029Z,9.61
2023-01-09T10:07:09.507Z,9.57
2023-01-09T10:09:46.756Z,9.59
2023-01-09T10:12:28.331Z,9.41
2023-01-09T10:14:58.343Z,9.29
2023-01-09T10:17:39.533Z,9.31
2023-01-09T10:20:31.258Z,9.24
2023-01-09T10:23:09.732Z,9.09
2023-01-09T10:25:44.999Z,9.14
2023-01-09T10:28:32.360Z,9.22
2023-01-09T10:31:05.681Z,9.12
2023-01-09T10:33:51.351Z,9.16
2023-01-09T10:36:50.800Z,9.17
2023-01-09T10:39:21.970Z,9.28
2023-01-09T10:41:57.907Z,9.37
2023-01-09T10:44:34.816Z,9.50
2023-01-09T10:47:05.384Z,9.35
2023-01-09T10:49:33.139Z,9.22
2023-01-09T10:52:15.454Z,9.23
2023-01-09T10:54:50.408Z,9.14
2023-01-09T10:57:35.095Z,9.25
2023-01-09T11:00:03.266Z,9.16
2023-01-09T11:02:35.358Z,9.34
2023-01-09T11:05:03.309Z,9.38
2023-01-09T11:07:38.065Z,9.49
2023-01-09T11:10:08.518Z,9.61
2023-01-09T11:12:37.679Z,9.47
2023-01-09T11:15:29.160Z,9.46
2023-01-09T11:18:19.172Z,9.42
2023-01-09T11:20:47.139Z,9.56
2023-01-09T11:23:40.055Z,9.65
2023-01-09T11:26:22.071Z,9.70
2023-01-09T11:29:06.797Z,9.61
2023-01-09T11:31:35.484Z,9.63
2023-01-09T11:34:03.816Z,9.73
2023-01-09T11:36:32.230Z,9.91
2023-01-09T11:39:02.859Z,10.02
2023-01-09T11:41:34.547Z,10.11
2023-01-09T11:44:05.186Z,10.05
2023-01-09T11:46:38.565Z,9.97
2023-01-09T11:49:20.979Z,9.64
2023-01-09T11:52:06.751Z,9.81
2023-01-09T11:54:39.481Z,9.85
2023-01-09T11:57:12.299Z,9.90
2023-01-09T11:59:40.449Z,9.89
2023-01-09T12:02:42.513Z,9.97
2023-01-09T12:05:21.376Z,10.02
2023-01-09T12:08:14.693Z,9.97
2023-01-09T12:10:59.195Z,9.95
2023-01-09T12:13:47.033Z,9.98
2023-01-09T12:16:26.923Z,9.96
2023-01-09T12:19:09.088Z,9.92
2023-01-09T12:21:42.695Z,9.95
2023-01-09T12:24:27.388Z,10.09
2023-01-09T12:27:06.811Z,10.22
2023-01-09T12:29:51.387Z,10.08
2023-01-09T12:32:46.133Z,10.05
2023-01-09T12:35:30.799Z,10.23
2023-01-09T12:38:17.540Z,10.23
2023-01-09T12:41:06.827Z,10.39
2023-01-09T12:43:49.781Z,10.32
2023-01-09T12:46:20.443Z,10.33
2023-01-09T12:49:10.555Z,10.36
2023-01-09T12:51:43.075Z,10.30
2023-01-09T12:54:18.217Z,10.24
2023-01-09T12:56:52.074Z,10.24
2023-01-09T12:59:31.323Z,10.12
2023-01-09T13:02:05.791Z,10.22
2023-01-09T13:04:38.533Z,10.22
2023-01-09T13:07:12.952Z,10.22
2023-01-09T13:09:46.881Z,10.29
2023-01-09T13:12:21.554Z,10.26
2023-01-09T13:14:56.520Z,10.31
2023-01-09T13:17:31.063Z,10.39
2023-01-09T13:19:59.108Z,10.51
2023-01-09T13:22:29.038Z,10.59
2023-01-09T13:25:22.215Z,10.59
2023-01-09T13:27:59.182Z,10.46
2023-01-09T13:30:46.089Z,10.44
2023-01-09T13:33:21.059Z,10.50
2023-01-09T13:35:51.350Z,10.53
2023-01-09T13:38:22.375Z,10.56
2023-01-09T13:41:22.916Z,10.53
2023-01-09T13:43:56.545Z,10.53
2023-01-09T13:46:36.847Z,10.50
2023-01-09T13:49:04.976Z,10.41
2023-01-09T13:51:58.185Z,10.44
2023-01-09T13:55:01.701Z,10.40
2023-01-09T13:57:31.703Z,10.37
2023-01-09T14:00:20.605Z,10.40
2023-01-09T14:03:06.754Z,10.43
2023-01-09T14:06:07.849Z,10.34
2023-01-09T14:08:36.112Z,10.34
2023-01-09T14:11:05.971Z,10.40
2023-01-09T14:13:40.038Z,10.35
2023-01-09T14:16:10.950Z,10.31
2023-01-09T14:18:49.319Z,10.33
2023-01-09T14:21:17.577Z,10.30
2023-01-09T14:23:56.023Z,10.30
2023-01-09T14:26:27.167Z,10.28
2023-01-09T14:29:30.166Z,10.26
2023-01-09T14:32:39.054Z,10.17
2023-01-09T14:35:16.234Z,10.17
2023-01-09T14:37:46.917Z,10.08
2023-01-09T14:40:23.268Z,9.86
2023-01-09T14:42:53.948Z,9.91
2023-01-09T14:45:24.543Z,9.93
2023-01-09T14:47:57.407Z,9.89
2023-01-09T14:50:33.455Z,9.87
2023-01-09T14:53:06.549Z,9.93
2023-01-09T14:55:50.751Z,10.01
2023-01-09T14:58:23.910Z,9.96
2023-01-09T15:00:59.680Z,10.00
2023-01-09T15:03:33.103Z,10.08
2023-01-09T15:06:02.899Z,10.13
2023-01-09T15:08:30.901Z,10.15
2023-01-09T15:10:59.958Z,10.15
2023-01-09T15:13:35.698Z,10.11
2023-01-09T15:16:07.044Z,10.15
2023-01-09T15:18:42.758Z,10.09
2023-01-09T15:21:25.703Z,10.13
2023-01-09T15:23:54.226Z,10.10
2023-01-09T15:26:26.503Z,10.17
2023-01-09T15:28:55.473Z,10.21
2023-01-09T15:31:25.210Z,10.24
2023-01-09T15:33:54.211Z,10.29
2023-01-09T15:36:26.095Z,10.29
2023-01-09T15:38:54.757Z,10.30
2023-01-09T15:41:44.784Z,10.32
2023-01-09T15:44:16.982Z,10.32
2023-01-09T15:46:46.541Z,10.30
2023-01-09T15:49:15.432Z,10.26
2023-01-09T15:51:46.930Z,10.29
2023-01-09T15:54:16.437Z,10.30
2023-01-09T15:56:46.408Z,10.05
2023-01-09T15:59:25.389Z,10.04
2023-01-09T16:02:19.858Z,10.04
2023-01-09T16:04:47.994Z,10.14
2023-01-09T16:07:21.698Z,10.26
2023-01-09T16:09:52.906Z,10.28
2023-01-09T16:12:23.562Z,10.32
2023-01-09T16:14:55.367Z,10.23
2023-01-09T16:17:26.756Z,10.12
2023-01-09T16:19:57.986Z,10.10
2023-01-09T16:22:30.003Z,10.10
2023-01-09T16:25:02.092Z,10.11
2023-01-09T16:27:33.223Z,10.09
2023-01-09T16:30:02.361Z,10.15
2023-01-09T16:32:32.370Z,10.21
2023-01-09T16:35:05.456Z,10.20
2023-01-09T16:37:36.071Z,10.21
2023-01-09T16:40:29.917Z,10.22
2023-01-09T16:43:01.793Z,10.15
2023-01-09T16:45:32.411Z,10.19
2023-01-09T16:48:00.971Z,10.23
2023-01-09T16:50:31.740Z,10.24
2023-01-09T16:53:03.218Z,10.21
2023-01-09T16:55:31.037Z,10.22
2023-01-09T16:57:59.027Z,10.17
2023-01-09T17:00:27.294Z,10.22
2023-01-09T17:02:56.609Z,10.17
2023-01-09T17:05:24.514Z,10.10
2023-01-09T17:07:52.372Z,10.15
2023-01-09T17:10:23.632Z,10.14
2023-01-09T17:12:51.494Z,10.15
2023-01-09T17:15:19.410Z,10.20
2023-01-09T17:17:47.299Z,10.21
2023-01-09T17:20:17.408Z,10.24
2023-01-09T17:22:45.624Z,10.28
2023-01-09T17:25:34.903Z,10.29
2023-01-09T17:28:23.019Z,10.33
2023-01-09T17:30:51.363Z,10.28
2023-01-09T17:33:20.558Z,10.26
2023-01-09T17:35:48.680Z,10.24
2023-01-09T17:38:17.523Z,10.14
2023-01-09T17:40:46.123Z,10.07
2023-01-09T17:43:16.336Z,10.11
2023-01-09T17:45:44.389Z,10.12
2023-01-09T17:48:17.659Z,10.12
2023-01-09T17:50:46.270Z,10.12
2023-01-09T17:53:14.503Z,10.10
2023-01-09T17:55:43.238Z,10.08
2023-01-09T17:58:26.559Z,10.13
2023-01-09T18:00:54.623Z,10.10
2023-01-09T18:03:24.356Z,10.10
2023-01-09T18:05:52.679Z,10.03
2023-01-09T18:08:20.749Z,10.05
2023-01-09T18:10:49.090Z,10.10
2023-01-09T18:13:17.462Z,10.10
2023-01-09T18:15:48.671Z,10.10
2023-01-09T18:18:17.172Z,10.10
2023-01-09T18:20:46.452Z,9.99
2023-01-09T18:23:18.511Z,10.06
2023-01-09T18:25:55.340Z,10.08
2023-01-09T18:28:23.383Z,9.97
2023-01-09T18:30:52.985Z,10.02
2023-01-09T18:33:20.817Z,10.02
2023-01-09T18:35:48.834Z,10.04
2023-01-09T18:38:16.736Z,10.05
2023-01-09T18:40:44.885Z,9.97
2023-01-09T18:43:14.290Z,9.96
2023-01-09T18:45:42.207Z,9.92
2023-01-09T18:48:12.715Z,9.91
2023-01-09T18:50:40.594Z,9.79
2023-01-09T18:53:08.560Z,9.78
2023-01-09T18:55:37.573Z,9.81
2023-01-09T18:58:05.797Z,9.81
2023-01-09T19:00:33.675Z,9.82
2023-01-09T19:03:01.618Z,9.80
2023-01-09T19:05:33.373Z,9.76
2023-01-09T19:08:01.409Z,9.77
2023-01-09T19:10:29.239Z,9.73
2023-01-09T19:12:57.255Z,9.68
2023-01-09T19:15:25.068Z,9.64
2023-01-09T19:17:53.011Z,9.55
2023-01-09T19:20:20.971Z,9.53
2023-01-09T19:22:50.391Z,9.53
2023-01-09T19:25:18.631Z,9.50
2023-01-09T19:27:46.572Z,9.56
2023-01-09T19:30:14.760Z,9.58
2023-01-09T19:32:42.752Z,9.40
2023-01-09T19:35:10.871Z,9.37
2023-01-09T19:37:38.814Z,9.46
2023-01-09T19:40:09.222Z,9.53
2023-01-09T19:42:37.064Z,9.56
2023-01-09T19:45:05.724Z,9.61
2023-01-09T19:47:36.095Z,9.71
2023-01-09T19:50:05.253Z,9.73
2023-01-09T19:52:33.218Z,9.79
2023-01-09T19:55:01.279Z,9.79
2023-01-09T19:57:31.038Z,9.79
2023-01-09T19:59:59.129Z,9.80
2023-01-09T20:02:28.100Z,9.79
2023-01-09T20:04:56.167Z,9.77
2023-01-09T20:07:24.141Z,9.77
2023-01-09T20:09:52.031Z,9.74
2023-01-09T20:12:20.265Z,9.74
2023-01-09T20:14:49.652Z,9.71
2023-01-09T20:17:17.939Z,9.68
2023-01-09T20:19:46.373Z,9.76
2023-01-09T20:22:14.881Z,9.70
2023-01-09T20:24:42.989Z,9.74
2023-01-09T20:27:11.145Z,9.73
2023-01-09T20:29:39.427Z,9.71
2023-01-09T20:32:09.952Z,9.66
2023-01-09T20:34:38.017Z,9.69
2023-01-09T20:37:05.937Z,9.55
2023-01-09T20:39:33.871Z,9.62
2023-01-09T20:42:01.928Z,9.61
2023-01-09T20:44:30.096Z,9.62
2023-01-09T20:46:57.983Z,9.64
2023-01-09T20:49:27.374Z,9.62
2023-01-09T20:51:55.403Z,9.63
2023-01-09T20:54:23.586Z,9.62
2023-01-09T20:56:52.208Z,9.67
2023-01-09T20:59:22.238Z,9.62
2023-01-09T21:01:50.604Z,9.59
2023-01-09T21:04:19.092Z,9.52
2023-01-09T21:06:50.150Z,9.56
2023-01-09T21:09:18.723Z,9.46
2023-01-09T21:11:46.560Z,9.52
2023-01-09T21:14:14.520Z,9.53
2023-01-09T21:16:43.978Z,9.58
2023-01-09T21:19:13.445Z,9.67
2023-01-09T21:21:41.345Z,9.57
2023-01-09T21:24:10.807Z,9.59
2023-01-09T21:26:38.619Z,9.62
2023-01-09T21:29:08.376Z,9.60
2023-01-09T21:31:36.333Z,9.58
2023-01-09T21:34:06.365Z,9.56
2023-01-09T21:36:35.312Z,9.52
2023-01-09T21:39:04.911Z,9.48
2023-01-09T21:41:52.897Z,9.46
2023-01-09T21:44:38.233Z,9.39
2023-01-09T21:47:06.152Z,9.35
2023-01-09T21:49:35.938Z,9.36
2023-01-09T21:52:05.161Z,9.35
2023-01-09T21:54:33.857Z,9.35
2023-01-09T21:57:04.047Z,9.37
2023-01-09T21:59:32.025Z,9.32
2023-01-09T22:02:00.419Z,9.44
2023-01-09T22:04:30.507Z,9.48
2023-01-09T22:06:58.735Z,9.48
2023-01-09T22:09:26.849Z,9.55
2023-01-09T22:11:54.866Z,9.49
2023-01-09T22:14:24.996Z,9.48
2023-01-09T22:16:52.963Z,9.45
2023-01-09T22:19:21.198Z,9.44
2023-01-09T22:21:49.655Z,9.39
2023-01-09T22:24:19.836Z,9.48
2023-01-09T22:26:48.282Z,9.46
2023-01-09T22:29:17.118Z,9.39
2023-01-09T22:31:46.441Z,9.40
2023-01-09T22:34:15.942Z,9.45
2023-01-09T22:36:44.443Z,9.42
2023-01-09T22:39:14.262Z,9.34
2023-01-09T22:41:42.701Z,9.28
2023-01-09T22:44:11.063Z,9.25
2023-01-09T22:46:39.739Z,9.23
2023-01-09T22:49:12.127Z,9.29
2023-01-09T22:51:40.132Z,9.34
2023-01-09T22:54:08.022Z,9.34
2023-01-09T22:56:36.296Z,9.32
2023-01-09T22:59:04.217Z,9.38
2023-01-09T23:01:32.040Z,9.29
2023-01-09T23:04:00.017Z,9.26
2023-01-09T23:06:30.450Z,9.27
2023-01-09T23:08:58.343Z,9.26
2023-01-09T23:11:46.669Z,9.32
2023-01-09T23:14:14.608Z,9.37
2023-01-09T23:16:42.842Z,9.30
2023-01-09T23:19:13.022Z,9.27
2023-01-09T23:21:42.736Z,9.38
2023-01-09T23:24:11.556Z,9.38
2023-01-09T23:26:39.945Z,9.32
2023-01-09T23:29:08.488Z,9.41
2023-01-09T23:31:36.965Z,9.39
2023-01-09T23:34:08.241Z,9.37
2023-01-09T23:36:36.633Z,9.17
2023-01-09T23:39:09.042Z,9.31
2023-01-09T23:41:54.868Z,9.35
2023-01-09T23:44:22.891Z,9.25
2023-01-09T23:46:50.776Z,9.29
2023-01-09T23:49:18.887Z,9.29
2023-01-09T23:51:47.097Z,9.37
2023-01-09T23:54:17.389Z,9.36
2023-01-09T23:56:45.331Z,9.31
2023-01-09T23:59:15.058Z,9.34
